Hico, Texas
Current Conditions -  °F | °C
As of 9:55 PM on Thursday 27 Nov 2014 (Local Time) from KSEP Reporting Station
Clear Clear  
Wind Chill: 42°   Ceiling: Unl
Heat Index: 42°   Visibility: 10mi
Dew Point: 30°   Wind: 3mph
Humidity: 61%   Direction: 180°S
Pressure: 30.38"   Gusts: NA
Location:  31.98°N, 98.03°W
Report Text: KSEP 280355Z AUTO 18003KT 10SM CLR 06/M01 A3038 RMK AO2 T00561013
Loading
Personal Weather Stations






























Interactive Weather Map New forecast layout! Learn more

10-Day Weather Forecast

Advertisements
Track Severe Weather on mobile